sensor_id;sensor_type;location;lat;lon;timestamp;P1;durP1;ratioP1;P2;durP2;ratioP2
18435;SDS011;9346;52.006;4.720;2022-11-04T00:01:01;4.13;;;1.00;;
18435;SDS011;9346;52.006;4.720;2022-11-04T00:03:29;0.67;;;0.63;;
18435;SDS011;9346;52.006;4.720;2022-11-04T00:05:59;2.33;;;1.20;;
18435;SDS011;9346;52.006;4.720;2022-11-04T00:08:26;0.60;;;0.30;;
18435;SDS011;9346;52.006;4.720;2022-11-04T00:10:55;2.00;;;0.70;;
18435;SDS011;9346;52.006;4.720;2022-11-04T00:13:49;1.37;;;0.73;;
18435;SDS011;9346;52.006;4.720;2022-11-04T00:16:16;1.97;;;0.77;;
18435;SDS011;9346;52.006;4.720;2022-11-04T00:19:01;1.80;;;0.50;;
18435;SDS011;9346;52.006;4.720;2022-11-04T00:21:29;1.37;;;0.70;;
18435;SDS011;9346;52.006;4.720;2022-11-04T00:24:13;1.10;;;0.60;;
18435;SDS011;9346;52.006;4.720;2022-11-04T00:27:11;0.60;;;0.50;;
18435;SDS011;9346;52.006;4.720;2022-11-04T00:29:58;2.53;;;0.63;;
18435;SDS011;9346;52.006;4.720;2022-11-04T00:32:25;3.07;;;0.73;;
18435;SDS011;9346;52.006;4.720;2022-11-04T00:35:10;5.33;;;1.23;;
18435;SDS011;9346;52.006;4.720;2022-11-04T00:37:38;1.93;;;0.70;;
18435;SDS011;9346;52.006;4.720;2022-11-04T00:40:09;1.87;;;1.23;;
18435;SDS011;9346;52.006;4.720;2022-11-04T00:42:40;6.23;;;1.07;;
18435;SDS011;9346;52.006;4.720;2022-11-04T00:45:09;2.57;;;0.70;;
18435;SDS011;9346;52.006;4.720;2022-11-04T00:47:36;1.17;;;0.60;;
18435;SDS011;9346;52.006;4.720;2022-11-04T00:50:05;1.33;;;0.70;;
18435;SDS011;9346;52.006;4.720;2022-11-04T00:52:33;1.20;;;0.80;;
18435;SDS011;9346;52.006;4.720;2022-11-04T00:55:00;1.63;;;0.87;;
18435;SDS011;9346;52.006;4.720;2022-11-04T00:57:27;4.13;;;0.90;;
18435;SDS011;9346;52.006;4.720;2022-11-04T00:59:56;1.80;;;0.50;;
18435;SDS011;9346;52.006;4.720;2022-11-04T01:02:24;0.57;;;0.57;;
18435;SDS011;9346;52.006;4.720;2022-11-04T01:04:51;1.63;;;0.60;;
18435;SDS011;9346;52.006;4.720;2022-11-04T01:07:18;0.57;;;0.57;;
18435;SDS011;9346;52.006;4.720;2022-11-04T01:09:45;0.67;;;0.50;;
18435;SDS011;9346;52.006;4.720;2022-11-04T01:12:14;0.70;;;0.50;;
18435;SDS011;9346;52.006;4.720;2022-11-04T01:14:43;1.50;;;0.47;;
18435;SDS011;9346;52.006;4.720;2022-11-04T01:17:15;2.03;;;0.60;;
18435;SDS011;9346;52.006;4.720;2022-11-04T01:19:42;0.93;;;0.60;;
18435;SDS011;9346;52.006;4.720;2022-11-04T01:22:09;1.20;;;0.83;;
18435;SDS011;9346;52.006;4.720;2022-11-04T01:24:37;2.00;;;0.70;;
18435;SDS011;9346;52.006;4.720;2022-11-04T01:27:04;2.07;;;0.77;;
18435;SDS011;9346;52.006;4.720;2022-11-04T01:29:32;4.30;;;1.27;;
18435;SDS011;9346;52.006;4.720;2022-11-04T01:32:00;1.73;;;0.70;;
18435;SDS011;9346;52.006;4.720;2022-11-04T01:34:29;1.73;;;0.73;;
18435;SDS011;9346;52.006;4.720;2022-11-04T01:36:56;2.03;;;0.63;;
18435;SDS011;9346;52.006;4.720;2022-11-04T01:39:23;2.60;;;0.90;;
18435;SDS011;9346;52.006;4.720;2022-11-04T01:41:50;3.70;;;1.40;;
18435;SDS011;9346;52.006;4.720;2022-11-04T01:47:17;3.50;;;0.60;;
18435;SDS011;9346;52.006;4.720;2022-11-04T01:49:48;2.20;;;0.70;;
18435;SDS011;9346;52.006;4.720;2022-11-04T01:52:20;1.27;;;0.53;;
18435;SDS011;9346;52.006;4.720;2022-11-04T01:54:50;0.90;;;0.70;;
18435;SDS011;9346;52.006;4.720;2022-11-04T01:57:22;4.07;;;0.70;;
18435;SDS011;9346;52.006;4.720;2022-11-04T01:59:55;1.90;;;0.70;;
18435;SDS011;9346;52.006;4.720;2022-11-04T02:02:27;1.47;;;1.07;;
18435;SDS011;9346;52.006;4.720;2022-11-04T02:04:55;2.33;;;1.13;;
18435;SDS011;9346;52.006;4.720;2022-11-04T02:07:22;2.73;;;0.73;;
18435;SDS011;9346;52.006;4.720;2022-11-04T02:09:50;2.30;;;0.60;;
18435;SDS011;9346;52.006;4.720;2022-11-04T02:12:18;0.70;;;0.70;;
18435;SDS011;9346;52.006;4.720;2022-11-04T02:15:03;1.60;;;0.90;;
18435;SDS011;9346;52.006;4.720;2022-11-04T02:20:39;0.50;;;0.50;;
18435;SDS011;9346;52.006;4.720;2022-11-04T02:26:39;1.20;;;0.93;;
18435;SDS011;9346;52.006;4.720;2022-11-04T02:29:28;1.00;;;0.90;;
18435;SDS011;9346;52.006;4.720;2022-11-04T02:32:14;1.10;;;0.97;;
18435;SDS011;9346;52.006;4.720;2022-11-04T02:34:52;3.83;;;1.30;;
18435;SDS011;9346;52.006;4.720;2022-11-04T02:37:31;1.33;;;1.20;;
18435;SDS011;9346;52.006;4.720;2022-11-04T02:40:08;7.03;;;1.97;;
18435;SDS011;9346;52.006;4.720;2022-11-04T02:42:49;3.70;;;2.57;;
18435;SDS011;9346;52.006;4.720;2022-11-04T02:45:27;4.70;;;2.60;;
18435;SDS011;9346;52.006;4.720;2022-11-04T02:48:02;4.83;;;3.10;;
18435;SDS011;9346;52.006;4.720;2022-11-04T02:50:33;7.53;;;3.20;;
18435;SDS011;9346;52.006;4.720;2022-11-04T02:53:08;5.57;;;3.70;;
18435;SDS011;9346;52.006;4.720;2022-11-04T02:55:41;8.67;;;3.83;;
18435;SDS011;9346;52.006;4.720;2022-11-04T02:58:13;5.53;;;4.10;;
18435;SDS011;9346;52.006;4.720;2022-11-04T03:00:46;5.70;;;3.67;;
18435;SDS011;9346;52.006;4.720;2022-11-04T03:03:17;6.07;;;4.10;;
18435;SDS011;9346;52.006;4.720;2022-11-04T03:05:49;7.83;;;5.40;;
18435;SDS011;9346;52.006;4.720;2022-11-04T03:08:19;9.23;;;4.90;;
18435;SDS011;9346;52.006;4.720;2022-11-04T03:10:52;10.77;;;5.30;;
18435;SDS011;9346;52.006;4.720;2022-11-04T03:13:25;7.90;;;4.83;;
18435;SDS011;9346;52.006;4.720;2022-11-04T03:16:02;10.77;;;5.33;;
18435;SDS011;9346;52.006;4.720;2022-11-04T03:18:37;10.07;;;6.23;;
18435;SDS011;9346;52.006;4.720;2022-11-04T03:21:10;10.93;;;6.37;;
18435;SDS011;9346;52.006;4.720;2022-11-04T03:23:40;9.63;;;5.53;;
18435;SDS011;9346;52.006;4.720;2022-11-04T03:26:08;11.53;;;5.73;;
18435;SDS011;9346;52.006;4.720;2022-11-04T03:28:40;9.43;;;5.83;;
18435;SDS011;9346;52.006;4.720;2022-11-04T03:31:16;9.63;;;5.37;;
18435;SDS011;9346;52.006;4.720;2022-11-04T03:33:50;11.37;;;6.07;;
18435;SDS011;9346;52.006;4.720;2022-11-04T03:36:21;10.20;;;5.67;;
18435;SDS011;9346;52.006;4.720;2022-11-04T03:38:50;11.17;;;5.57;;
18435;SDS011;9346;52.006;4.720;2022-11-04T03:41:20;11.73;;;6.17;;
18435;SDS011;9346;52.006;4.720;2022-11-04T03:43:52;9.80;;;5.77;;
18435;SDS011;9346;52.006;4.720;2022-11-04T03:46:22;13.13;;;6.13;;
18435;SDS011;9346;52.006;4.720;2022-11-04T03:48:50;7.40;;;4.53;;
18435;SDS011;9346;52.006;4.720;2022-11-04T03:51:19;7.47;;;5.33;;
18435;SDS011;9346;52.006;4.720;2022-11-04T03:53:48;8.30;;;4.93;;
18435;SDS011;9346;52.006;4.720;2022-11-04T03:56:27;14.00;;;5.40;;
18435;SDS011;9346;52.006;4.720;2022-11-04T03:59:08;8.20;;;4.63;;
18435;SDS011;9346;52.006;4.720;2022-11-04T04:01:46;11.57;;;5.13;;
18435;SDS011;9346;52.006;4.720;2022-11-04T04:04:19;14.30;;;5.57;;
18435;SDS011;9346;52.006;4.720;2022-11-04T04:06:53;10.80;;;5.77;;
18435;SDS011;9346;52.006;4.720;2022-11-04T04:09:25;9.97;;;5.73;;
18435;SDS011;9346;52.006;4.720;2022-11-04T04:12:00;10.13;;;5.93;;
18435;SDS011;9346;52.006;4.720;2022-11-04T04:14:33;9.00;;;5.47;;
18435;SDS011;9346;52.006;4.720;2022-11-04T04:17:11;8.30;;;5.20;;
18435;SDS011;9346;52.006;4.720;2022-11-04T04:19:47;13.97;;;7.37;;
18435;SDS011;9346;52.006;4.720;2022-11-04T04:22:19;11.43;;;5.87;;
18435;SDS011;9346;52.006;4.720;2022-11-04T04:24:51;15.67;;;6.77;;
18435;SDS011;9346;52.006;4.720;2022-11-04T04:27:38;11.40;;;5.80;;
18435;SDS011;9346;52.006;4.720;2022-11-04T04:30:07;14.60;;;7.23;;
18435;SDS011;9346;52.006;4.720;2022-11-04T04:32:41;13.03;;;6.50;;
18435;SDS011;9346;52.006;4.720;2022-11-04T04:35:10;11.60;;;6.27;;
18435;SDS011;9346;52.006;4.720;2022-11-04T04:37:55;10.07;;;6.03;;
18435;SDS011;9346;52.006;4.720;2022-11-04T04:40:48;11.07;;;5.70;;
18435;SDS011;9346;52.006;4.720;2022-11-04T04:43:36;11.93;;;6.13;;
18435;SDS011;9346;52.006;4.720;2022-11-04T04:46:25;9.60;;;5.50;;
18435;SDS011;9346;52.006;4.720;2022-11-04T04:48:54;13.83;;;6.57;;
18435;SDS011;9346;52.006;4.720;2022-11-04T04:51:28;10.90;;;6.03;;
18435;SDS011;9346;52.006;4.720;2022-11-04T04:53:56;11.13;;;5.60;;
18435;SDS011;9346;52.006;4.720;2022-11-04T04:56:23;8.80;;;5.60;;
18435;SDS011;9346;52.006;4.720;2022-11-04T04:58:52;11.23;;;5.70;;
18435;SDS011;9346;52.006;4.720;2022-11-04T05:01:19;9.53;;;5.30;;
18435;SDS011;9346;52.006;4.720;2022-11-04T05:03:46;11.03;;;5.83;;
18435;SDS011;9346;52.006;4.720;2022-11-04T05:06:15;11.00;;;5.60;;
18435;SDS011;9346;52.006;4.720;2022-11-04T05:08:42;11.17;;;5.90;;
18435;SDS011;9346;52.006;4.720;2022-11-04T05:11:09;10.13;;;5.83;;
18435;SDS011;9346;52.006;4.720;2022-11-04T05:13:36;12.33;;;5.90;;
18435;SDS011;9346;52.006;4.720;2022-11-04T05:16:05;13.50;;;5.23;;
18435;SDS011;9346;52.006;4.720;2022-11-04T05:18:34;9.23;;;5.33;;
18435;SDS011;9346;52.006;4.720;2022-11-04T05:21:03;7.27;;;5.37;;
18435;SDS011;9346;52.006;4.720;2022-11-04T05:23:32;7.03;;;4.90;;
18435;SDS011;9346;52.006;4.720;2022-11-04T05:26:00;11.17;;;5.77;;
18435;SDS011;9346;52.006;4.720;2022-11-04T05:28:27;8.43;;;5.53;;
18435;SDS011;9346;52.006;4.720;2022-11-04T05:30:54;10.40;;;5.20;;
18435;SDS011;9346;52.006;4.720;2022-11-04T05:33:21;9.57;;;5.57;;
18435;SDS011;9346;52.006;4.720;2022-11-04T05:35:48;8.60;;;4.80;;
18435;SDS011;9346;52.006;4.720;2022-11-04T05:38:15;9.50;;;5.73;;
18435;SDS011;9346;52.006;4.720;2022-11-04T05:40:44;10.63;;;5.87;;
18435;SDS011;9346;52.006;4.720;2022-11-04T05:43:10;8.00;;;4.37;;
18435;SDS011;9346;52.006;4.720;2022-11-04T05:45:39;10.77;;;4.90;;
18435;SDS011;9346;52.006;4.720;2022-11-04T05:48:06;8.60;;;4.93;;
18435;SDS011;9346;52.006;4.720;2022-11-04T05:50:33;10.80;;;4.90;;
18435;SDS011;9346;52.006;4.720;2022-11-04T05:53:00;8.47;;;4.60;;
18435;SDS011;9346;52.006;4.720;2022-11-04T05:55:28;7.30;;;4.70;;
18435;SDS011;9346;52.006;4.720;2022-11-04T05:57:57;7.50;;;4.60;;
18435;SDS011;9346;52.006;4.720;2022-11-04T06:00:24;10.03;;;4.70;;
18435;SDS011;9346;52.006;4.720;2022-11-04T06:02:52;9.90;;;5.30;;
18435;SDS011;9346;52.006;4.720;2022-11-04T06:05:22;8.30;;;4.30;;
18435;SDS011;9346;52.006;4.720;2022-11-04T06:07:49;14.10;;;4.60;;
18435;SDS011;9346;52.006;4.720;2022-11-04T06:10:17;10.33;;;5.17;;
18435;SDS011;9346;52.006;4.720;2022-11-04T06:12:45;11.00;;;5.50;;
18435;SDS011;9346;52.006;4.720;2022-11-04T06:15:13;9.70;;;4.13;;
18435;SDS011;9346;52.006;4.720;2022-11-04T06:17:41;10.07;;;4.70;;
18435;SDS011;9346;52.006;4.720;2022-11-04T06:20:12;8.80;;;5.40;;
18435;SDS011;9346;52.006;4.720;2022-11-04T06:22:40;11.13;;;5.23;;
18435;SDS011;9346;52.006;4.720;2022-11-04T06:25:08;9.13;;;5.00;;
18435;SDS011;9346;52.006;4.720;2022-11-04T06:27:37;8.27;;;4.67;;
18435;SDS011;9346;52.006;4.720;2022-11-04T06:30:06;8.10;;;4.83;;
18435;SDS011;9346;52.006;4.720;2022-11-04T06:32:36;10.97;;;5.03;;
18435;SDS011;9346;52.006;4.720;2022-11-04T06:35:06;9.20;;;4.83;;
18435;SDS011;9346;52.006;4.720;2022-11-04T06:37:35;7.90;;;4.17;;
18435;SDS011;9346;52.006;4.720;2022-11-04T06:40:03;7.93;;;5.13;;
18435;SDS011;9346;52.006;4.720;2022-11-04T06:42:30;9.73;;;5.20;;
18435;SDS011;9346;52.006;4.720;2022-11-04T06:45:00;7.57;;;4.30;;
18435;SDS011;9346;52.006;4.720;2022-11-04T06:47:27;11.27;;;5.10;;
18435;SDS011;9346;52.006;4.720;2022-11-04T06:49:56;10.63;;;5.17;;
18435;SDS011;9346;52.006;4.720;2022-11-04T06:52:24;10.10;;;5.13;;
18435;SDS011;9346;52.006;4.720;2022-11-04T06:54:52;10.67;;;5.07;;
18435;SDS011;9346;52.006;4.720;2022-11-04T06:57:20;7.83;;;3.90;;
18435;SDS011;9346;52.006;4.720;2022-11-04T06:59:47;8.30;;;4.57;;
18435;SDS011;9346;52.006;4.720;2022-11-04T07:02:14;9.83;;;5.13;;
18435;SDS011;9346;52.006;4.720;2022-11-04T07:04:44;10.93;;;4.60;;
18435;SDS011;9346;52.006;4.720;2022-11-04T07:07:14;8.30;;;5.23;;
18435;SDS011;9346;52.006;4.720;2022-11-04T07:09:42;8.40;;;5.00;;
18435;SDS011;9346;52.006;4.720;2022-11-04T07:12:10;9.37;;;4.37;;
18435;SDS011;9346;52.006;4.720;2022-11-04T07:14:38;12.33;;;4.40;;
18435;SDS011;9346;52.006;4.720;2022-11-04T07:17:05;14.57;;;4.33;;
18435;SDS011;9346;52.006;4.720;2022-11-04T07:19:31;8.93;;;4.50;;
18435;SDS011;9346;52.006;4.720;2022-11-04T07:21:59;10.73;;;5.17;;
18435;SDS011;9346;52.006;4.720;2022-11-04T07:24:28;6.27;;;4.37;;
18435;SDS011;9346;52.006;4.720;2022-11-04T07:26:55;9.20;;;4.10;;
18435;SDS011;9346;52.006;4.720;2022-11-04T07:29:22;10.20;;;4.33;;
18435;SDS011;9346;52.006;4.720;2022-11-04T07:31:49;7.17;;;4.10;;
18435;SDS011;9346;52.006;4.720;2022-11-04T07:34:16;12.70;;;4.20;;
18435;SDS011;9346;52.006;4.720;2022-11-04T07:36:43;8.03;;;3.90;;
18435;SDS011;9346;52.006;4.720;2022-11-04T07:39:10;10.87;;;3.73;;
18435;SDS011;9346;52.006;4.720;2022-11-04T07:41:39;9.00;;;4.13;;
18435;SDS011;9346;52.006;4.720;2022-11-04T07:44:09;11.17;;;4.37;;
18435;SDS011;9346;52.006;4.720;2022-11-04T07:46:37;10.27;;;4.13;;
18435;SDS011;9346;52.006;4.720;2022-11-04T07:49:05;14.37;;;4.47;;
18435;SDS011;9346;52.006;4.720;2022-11-04T07:51:34;6.17;;;4.43;;
18435;SDS011;9346;52.006;4.720;2022-11-04T07:54:02;10.63;;;4.40;;
18435;SDS011;9346;52.006;4.720;2022-11-04T07:56:29;6.50;;;4.03;;
18435;SDS011;9346;52.006;4.720;2022-11-04T07:58:59;8.40;;;4.03;;
18435;SDS011;9346;52.006;4.720;2022-11-04T08:01:26;8.87;;;4.53;;
18435;SDS011;9346;52.006;4.720;2022-11-04T08:03:54;11.23;;;4.10;;
18435;SDS011;9346;52.006;4.720;2022-11-04T08:06:21;8.37;;;4.37;;
18435;SDS011;9346;52.006;4.720;2022-11-04T08:08:48;9.27;;;4.30;;
18435;SDS011;9346;52.006;4.720;2022-11-04T08:11:18;12.43;;;4.33;;
18435;SDS011;9346;52.006;4.720;2022-11-04T08:13:47;8.37;;;4.00;;
18435;SDS011;9346;52.006;4.720;2022-11-04T08:16:17;9.20;;;3.70;;
18435;SDS011;9346;52.006;4.720;2022-11-04T08:18:46;9.33;;;3.70;;
18435;SDS011;9346;52.006;4.720;2022-11-04T08:21:13;8.57;;;3.87;;
18435;SDS011;9346;52.006;4.720;2022-11-04T08:23:42;9.93;;;4.47;;
18435;SDS011;9346;52.006;4.720;2022-11-04T08:26:10;8.93;;;4.57;;
18435;SDS011;9346;52.006;4.720;2022-11-04T08:28:39;7.00;;;4.53;;
18435;SDS011;9346;52.006;4.720;2022-11-04T08:31:07;7.80;;;4.80;;
18435;SDS011;9346;52.006;4.720;2022-11-04T08:33:37;8.83;;;4.33;;
18435;SDS011;9346;52.006;4.720;2022-11-04T08:36:06;9.00;;;4.50;;
18435;SDS011;9346;52.006;4.720;2022-11-04T08:38:35;11.40;;;4.57;;
18435;SDS011;9346;52.006;4.720;2022-11-04T08:41:03;13.77;;;4.87;;
18435;SDS011;9346;52.006;4.720;2022-11-04T08:43:32;10.43;;;4.43;;
18435;SDS011;9346;52.006;4.720;2022-11-04T08:46:00;10.00;;;4.00;;
18435;SDS011;9346;52.006;4.720;2022-11-04T08:48:29;8.10;;;4.17;;
18435;SDS011;9346;52.006;4.720;2022-11-04T08:50:59;14.87;;;4.73;;
18435;SDS011;9346;52.006;4.720;2022-11-04T08:53:27;16.67;;;5.00;;
18435;SDS011;9346;52.006;4.720;2022-11-04T08:55:54;9.50;;;4.27;;
18435;SDS011;9346;52.006;4.720;2022-11-04T08:58:21;9.20;;;5.03;;
18435;SDS011;9346;52.006;4.720;2022-11-04T09:00:48;11.90;;;4.97;;
18435;SDS011;9346;52.006;4.720;2022-11-04T09:03:15;13.20;;;5.73;;
18435;SDS011;9346;52.006;4.720;2022-11-04T09:05:43;10.47;;;4.90;;
18435;SDS011;9346;52.006;4.720;2022-11-04T09:08:15;15.33;;;4.77;;
18435;SDS011;9346;52.006;4.720;2022-11-04T09:10:43;10.87;;;6.17;;
18435;SDS011;9346;52.006;4.720;2022-11-04T09:13:11;12.83;;;6.13;;
18435;SDS011;9346;52.006;4.720;2022-11-04T09:15:40;9.73;;;5.50;;
18435;SDS011;9346;52.006;4.720;2022-11-04T09:18:07;16.97;;;5.63;;
18435;SDS011;9346;52.006;4.720;2022-11-04T09:20:35;12.60;;;6.67;;
18435;SDS011;9346;52.006;4.720;2022-11-04T09:23:04;15.07;;;6.73;;
18435;SDS011;9346;52.006;4.720;2022-11-04T09:25:33;13.77;;;6.33;;
18435;SDS011;9346;52.006;4.720;2022-11-04T09:27:59;14.93;;;6.70;;
18435;SDS011;9346;52.006;4.720;2022-11-04T09:30:27;15.47;;;6.37;;
18435;SDS011;9346;52.006;4.720;2022-11-04T09:32:54;18.67;;;6.43;;
18435;SDS011;9346;52.006;4.720;2022-11-04T09:35:22;13.27;;;6.60;;
18435;SDS011;9346;52.006;4.720;2022-11-04T09:37:51;12.20;;;6.93;;
18435;SDS011;9346;52.006;4.720;2022-11-04T09:40:19;12.17;;;6.30;;
18435;SDS011;9346;52.006;4.720;2022-11-04T09:42:52;16.80;;;7.00;;
18435;SDS011;9346;52.006;4.720;2022-11-04T09:45:32;14.07;;;7.00;;
18435;SDS011;9346;52.006;4.720;2022-11-04T09:48:06;23.77;;;7.73;;
18435;SDS011;9346;52.006;4.720;2022-11-04T09:50:41;18.10;;;9.17;;
18435;SDS011;9346;52.006;4.720;2022-11-04T09:53:13;18.40;;;8.73;;
18435;SDS011;9346;52.006;4.720;2022-11-04T09:55:45;18.73;;;7.87;;
18435;SDS011;9346;52.006;4.720;2022-11-04T09:58:19;16.53;;;7.77;;
18435;SDS011;9346;52.006;4.720;2022-11-04T10:00:49;22.83;;;8.60;;
18435;SDS011;9346;52.006;4.720;2022-11-04T10:03:22;17.07;;;9.37;;
18435;SDS011;9346;52.006;4.720;2022-11-04T10:06:13;19.27;;;8.80;;
18435;SDS011;9346;52.006;4.720;2022-11-04T10:11:57;22.27;;;9.40;;
18435;SDS011;9346;52.006;4.720;2022-11-04T10:14:47;21.27;;;9.40;;
18435;SDS011;9346;52.006;4.720;2022-11-04T10:17:32;20.13;;;9.57;;
18435;SDS011;9346;52.006;4.720;2022-11-04T10:20:16;21.03;;;9.57;;
18435;SDS011;9346;52.006;4.720;2022-11-04T10:22:55;17.30;;;8.63;;
18435;SDS011;9346;52.006;4.720;2022-11-04T10:25:24;17.33;;;8.87;;
18435;SDS011;9346;52.006;4.720;2022-11-04T10:27:55;17.47;;;9.10;;
18435;SDS011;9346;52.006;4.720;2022-11-04T10:30:27;16.83;;;8.80;;
18435;SDS011;9346;52.006;4.720;2022-11-04T10:32:58;17.43;;;8.17;;
18435;SDS011;9346;52.006;4.720;2022-11-04T10:35:33;17.40;;;8.43;;
18435;SDS011;9346;52.006;4.720;2022-11-04T10:38:16;17.30;;;8.80;;
18435;SDS011;9346;52.006;4.720;2022-11-04T10:40:46;19.90;;;8.70;;
18435;SDS011;9346;52.006;4.720;2022-11-04T10:43:16;19.27;;;8.90;;
18435;SDS011;9346;52.006;4.720;2022-11-04T10:46:00;14.17;;;8.63;;
18435;SDS011;9346;52.006;4.720;2022-11-04T10:48:34;16.50;;;8.77;;
18435;SDS011;9346;52.006;4.720;2022-11-04T10:51:05;17.70;;;8.27;;
18435;SDS011;9346;52.006;4.720;2022-11-04T10:53:32;19.73;;;8.80;;
18435;SDS011;9346;52.006;4.720;2022-11-04T10:56:02;19.33;;;9.00;;
18435;SDS011;9346;52.006;4.720;2022-11-04T10:58:33;18.70;;;8.47;;
18435;SDS011;9346;52.006;4.720;2022-11-04T11:03:54;19.67;;;9.10;;
18435;SDS011;9346;52.006;4.720;2022-11-04T11:06:23;16.03;;;10.00;;
18435;SDS011;9346;52.006;4.720;2022-11-04T11:08:53;18.47;;;9.57;;
18435;SDS011;9346;52.006;4.720;2022-11-04T11:11:41;17.20;;;9.60;;
18435;SDS011;9346;52.006;4.720;2022-11-04T11:14:18;20.17;;;9.00;;
18435;SDS011;9346;52.006;4.720;2022-11-04T11:17:15;19.77;;;9.90;;
18435;SDS011;9346;52.006;4.720;2022-11-04T11:19:44;20.93;;;11.20;;
18435;SDS011;9346;52.006;4.720;2022-11-04T11:22:26;16.37;;;8.77;;
18435;SDS011;9346;52.006;4.720;2022-11-04T11:25:11;18.00;;;10.10;;
18435;SDS011;9346;52.006;4.720;2022-11-04T11:27:44;18.10;;;9.83;;
18435;SDS011;9346;52.006;4.720;2022-11-04T11:30:21;20.37;;;9.67;;
18435;SDS011;9346;52.006;4.720;2022-11-04T11:32:53;14.50;;;9.90;;
18435;SDS011;9346;52.006;4.720;2022-11-04T11:35:26;17.27;;;10.47;;
18435;SDS011;9346;52.006;4.720;2022-11-04T11:37:57;17.60;;;9.70;;
18435;SDS011;9346;52.006;4.720;2022-11-04T11:40:29;18.40;;;10.53;;
18435;SDS011;9346;52.006;4.720;2022-11-04T11:43:01;16.73;;;9.73;;
18435;SDS011;9346;52.006;4.720;2022-11-04T11:45:30;17.47;;;10.53;;
18435;SDS011;9346;52.006;4.720;2022-11-04T11:47:59;16.20;;;8.77;;
18435;SDS011;9346;52.006;4.720;2022-11-04T11:50:26;10.87;;;6.30;;
18435;SDS011;9346;52.006;4.720;2022-11-04T11:53:14;10.53;;;5.77;;
18435;SDS011;9346;52.006;4.720;2022-11-04T11:55:45;9.30;;;4.67;;
18435;SDS011;9346;52.006;4.720;2022-11-04T11:58:18;8.13;;;3.23;;
18435;SDS011;9346;52.006;4.720;2022-11-04T12:00:53;9.73;;;4.07;;
18435;SDS011;9346;52.006;4.720;2022-11-04T12:03:30;5.30;;;3.00;;
18435;SDS011;9346;52.006;4.720;2022-11-04T12:06:05;3.63;;;2.47;;
18435;SDS011;9346;52.006;4.720;2022-11-04T12:08:45;5.33;;;2.30;;
18435;SDS011;9346;52.006;4.720;2022-11-04T12:11:22;5.43;;;2.00;;
18435;SDS011;9346;52.006;4.720;2022-11-04T12:14:00;5.53;;;1.90;;
18435;SDS011;9346;52.006;4.720;2022-11-04T12:16:32;4.30;;;1.87;;
18435;SDS011;9346;52.006;4.720;2022-11-04T12:19:13;5.83;;;2.17;;
18435;SDS011;9346;52.006;4.720;2022-11-04T12:21:54;2.80;;;1.70;;
18435;SDS011;9346;52.006;4.720;2022-11-04T12:24:27;2.37;;;1.20;;
18435;SDS011;9346;52.006;4.720;2022-11-04T12:27:01;1.40;;;1.10;;
18435;SDS011;9346;52.006;4.720;2022-11-04T12:29:40;1.93;;;0.90;;
18435;SDS011;9346;52.006;4.720;2022-11-04T12:32:18;0.73;;;0.70;;
18435;SDS011;9346;52.006;4.720;2022-11-04T12:35:02;1.50;;;0.87;;
18435;SDS011;9346;52.006;4.720;2022-11-04T12:37:43;0.90;;;0.70;;
18435;SDS011;9346;52.006;4.720;2022-11-04T12:40:19;1.30;;;0.70;;
18435;SDS011;9346;52.006;4.720;2022-11-04T12:42:52;0.80;;;0.60;;
18435;SDS011;9346;52.006;4.720;2022-11-04T12:45:31;1.67;;;0.90;;
18435;SDS011;9346;52.006;4.720;2022-11-04T12:48:09;1.67;;;0.50;;
18435;SDS011;9346;52.006;4.720;2022-11-04T12:50:51;3.67;;;0.70;;
18435;SDS011;9346;52.006;4.720;2022-11-04T12:56:22;0.47;;;0.47;;
18435;SDS011;9346;52.006;4.720;2022-11-04T13:02:06;0.30;;;0.20;;
18435;SDS011;9346;52.006;4.720;2022-11-04T13:04:41;1.47;;;0.50;;
18435;SDS011;9346;52.006;4.720;2022-11-04T13:07:18;0.50;;;0.50;;
18435;SDS011;9346;52.006;4.720;2022-11-04T13:09:54;1.17;;;0.57;;
18435;SDS011;9346;52.006;4.720;2022-11-04T13:12:26;0.80;;;0.37;;
18435;SDS011;9346;52.006;4.720;2022-11-04T13:14:59;0.40;;;0.33;;
18435;SDS011;9346;52.006;4.720;2022-11-04T13:17:28;1.10;;;0.63;;
18435;SDS011;9346;52.006;4.720;2022-11-04T13:19:59;2.27;;;0.60;;
18435;SDS011;9346;52.006;4.720;2022-11-04T13:22:35;0.93;;;0.60;;
18435;SDS011;9346;52.006;4.720;2022-11-04T13:25:04;3.60;;;0.40;;
18435;SDS011;9346;52.006;4.720;2022-11-04T13:27:43;0.60;;;0.50;;
18435;SDS011;9346;52.006;4.720;2022-11-04T13:30:16;0.50;;;0.50;;
18435;SDS011;9346;52.006;4.720;2022-11-04T13:32:51;0.87;;;0.50;;
18435;SDS011;9346;52.006;4.720;2022-11-04T13:35:25;0.87;;;0.43;;
18435;SDS011;9346;52.006;4.720;2022-11-04T13:38:04;1.93;;;0.67;;
18435;SDS011;9346;52.006;4.720;2022-11-04T13:40:40;1.07;;;0.50;;
18435;SDS011;9346;52.006;4.720;2022-11-04T13:43:19;0.50;;;0.50;;
18435;SDS011;9346;52.006;4.720;2022-11-04T13:46:05;2.30;;;0.80;;
18435;SDS011;9346;52.006;4.720;2022-11-04T13:48:50;0.77;;;0.30;;
18435;SDS011;9346;52.006;4.720;2022-11-04T13:51:20;2.30;;;0.50;;
18435;SDS011;9346;52.006;4.720;2022-11-04T13:53:50;0.30;;;0.30;;
18435;SDS011;9346;52.006;4.720;2022-11-04T13:56:25;0.47;;;0.30;;
18435;SDS011;9346;52.006;4.720;2022-11-04T13:58:55;0.33;;;0.33;;
18435;SDS011;9346;52.006;4.720;2022-11-04T14:01:25;0.40;;;0.40;;
18435;SDS011;9346;52.006;4.720;2022-11-04T14:04:13;1.40;;;0.40;;
18435;SDS011;9346;52.006;4.720;2022-11-04T14:06:52;0.33;;;0.33;;
18435;SDS011;9346;52.006;4.720;2022-11-04T14:09:35;0.87;;;0.40;;
18435;SDS011;9346;52.006;4.720;2022-11-04T14:12:24;1.20;;;0.60;;
18435;SDS011;9346;52.006;4.720;2022-11-04T14:15:11;0.93;;;0.50;;
18435;SDS011;9346;52.006;4.720;2022-11-04T14:17:58;3.20;;;0.83;;
18435;SDS011;9346;52.006;4.720;2022-11-04T14:20:27;0.73;;;0.50;;
18435;SDS011;9346;52.006;4.720;2022-11-04T14:23:19;0.90;;;0.53;;
18435;SDS011;9346;52.006;4.720;2022-11-04T14:25:59;0.50;;;0.43;;
18435;SDS011;9346;52.006;4.720;2022-11-04T14:28:29;1.73;;;0.50;;
18435;SDS011;9346;52.006;4.720;2022-11-04T14:30:57;5.47;;;0.70;;
18435;SDS011;9346;52.006;4.720;2022-11-04T14:33:29;1.33;;;0.40;;
18435;SDS011;9346;52.006;4.720;2022-11-04T14:38:51;0.50;;;0.50;;
18435;SDS011;9346;52.006;4.720;2022-11-04T14:41:22;3.53;;;0.70;;
18435;SDS011;9346;52.006;4.720;2022-11-04T14:43:57;3.03;;;1.10;;
18435;SDS011;9346;52.006;4.720;2022-11-04T14:46:28;1.10;;;0.80;;
18435;SDS011;9346;52.006;4.720;2022-11-04T14:49:00;3.23;;;0.83;;
18435;SDS011;9346;52.006;4.720;2022-11-04T14:51:31;1.37;;;0.70;;
18435;SDS011;9346;52.006;4.720;2022-11-04T14:54:05;0.93;;;0.50;;
18435;SDS011;9346;52.006;4.720;2022-11-04T14:56:51;1.37;;;0.93;;
18435;SDS011;9346;52.006;4.720;2022-11-04T14:59:19;0.67;;;0.60;;
18435;SDS011;9346;52.006;4.720;2022-11-04T15:01:48;2.10;;;0.90;;
18435;SDS011;9346;52.006;4.720;2022-11-04T15:04:17;2.57;;;0.90;;
18435;SDS011;9346;52.006;4.720;2022-11-04T15:06:52;3.57;;;0.80;;
18435;SDS011;9346;52.006;4.720;2022-11-04T15:09:21;1.90;;;0.93;;
18435;SDS011;9346;52.006;4.720;2022-11-04T15:11:53;1.40;;;0.57;;
18435;SDS011;9346;52.006;4.720;2022-11-04T15:14:44;1.30;;;0.67;;
18435;SDS011;9346;52.006;4.720;2022-11-04T15:17:14;1.07;;;0.60;;
18435;SDS011;9346;52.006;4.720;2022-11-04T15:19:46;5.90;;;0.87;;
18435;SDS011;9346;52.006;4.720;2022-11-04T15:22:16;0.67;;;0.40;;
18435;SDS011;9346;52.006;4.720;2022-11-04T15:24:43;6.77;;;1.27;;
18435;SDS011;9346;52.006;4.720;2022-11-04T15:27:14;1.40;;;0.80;;
18435;SDS011;9346;52.006;4.720;2022-11-04T15:29:51;2.80;;;1.00;;
18435;SDS011;9346;52.006;4.720;2022-11-04T15:32:19;2.33;;;0.77;;
18435;SDS011;9346;52.006;4.720;2022-11-04T15:34:46;1.43;;;0.70;;
18435;SDS011;9346;52.006;4.720;2022-11-04T15:37:13;2.13;;;0.87;;
18435;SDS011;9346;52.006;4.720;2022-11-04T15:39:42;1.80;;;0.90;;
18435;SDS011;9346;52.006;4.720;2022-11-04T15:42:12;2.40;;;0.67;;
18435;SDS011;9346;52.006;4.720;2022-11-04T15:45:00;1.70;;;0.87;;
18435;SDS011;9346;52.006;4.720;2022-11-04T15:50:55;3.27;;;1.70;;
18435;SDS011;9346;52.006;4.720;2022-11-04T15:53:30;1.77;;;1.03;;